Station: LAMEROO AWS

  Atmospheric Gas Attenuation - ITU Rec 676-11   --------------- db/100km ---------------
Date Time Temp RH % AH g/m3 Dew Point Wind Direction Speed kph Gust kph Barometer mB Rainfall Since 9am 24GHz 47GHz 76GHz 122GHz 134GHz 241GHz
25 01:30 12.5 71 7.81 7.4 11 13 1012.6 0 18.0 25.0 37.2 97.6 89.5 307.3
25 01:20 12.8 69 7.73 7.4 11 13 1013.1 0 17.8 24.8 36.8 96.5 88.2 302.7
25 01:10 12.9 69 7.78 7.3 11 11 1013.1 0 17.9 24.8 37.0 96.9 88.7 304.5
25 01:00 13.2 70 8.04 7.9 15 15 1012.9 0 18.4 25.2 37.8 99.2 91.8 315.2
25 00:50 12.5 68 7.48 6.7 13 13 1013.1 0 17.3 24.5 36.0 94.2 85.3 292.5
25 00:40 12.5 67 7.37 6.5 9 9 1013.1 0 17.0 24.3 35.5 93.1 83.9 287.5
25 00:30 12.6 65 7.19 6.2 9 11 1013.4 0 16.6 24.0 34.8 91.1 81.5 279.2
25 00:20 13 63 7.15 6.1 7 7 1013.1 0 16.5 23.8 34.5 90.2 80.6 275.9
25 00:10 13.8 62 7.39 6.8 7 9 1013.1 0 17.0 24.0 35.0 91.8 82.8 283.7
25 00:00 14 63 7.6 7.1 15 17 1013.9 0 17.4 24.3 35.8 93.8 85.3 292.5
24 23:50 14.3 63 7.74 7.3 15 15 1013.1 0 17.7 24.4 36.2 94.8 86.7 297.4
24 23:40 14.2 62 7.57 7 9 9 1013.1 0 17.4 24.1 35.6 93.1 84.6 290.2
24 23:30 14.4 61 7.54 7 9 13 1014.1 0 17.3 24.1 35.4 92.7 84.1 288.4
24 23:20 14.7 60 7.55 7 13 15 1013.1 0 17.3 24.0 35.3 92.4 83.8 287.5
24 23:10 14.6 58 7.26 6.4 15 15 1013.1 0 16.7 23.6 34.2 89.5 80.3 275.2
24 23:00 14.5 57 7.09 6.1 11 13 1014.3 0 16.3 23.4 33.7 88.0 78.4 268.4
24 22:50 14.8 56 7.09 6.1 11 11 1013.1 0 16.3 23.3 33.5 87.6 78.0 267.2
24 22:40 15 55 7.05 6 13 15 1013.1 0 16.2 23.1 33.3 87.0 77.3 264.8
24 22:30 15 55 7.05 6 15 17 1014.5 0 16.2 23.2 33.3 87.1 77.4 265.1
24 22:20 14.7 56 7.05 6 15 15 1013.1 0 16.2 23.2 33.4 87.3 77.6 265.8
24 22:10 14.4 56 6.92 5.7 13 13 1013.1 0 16.0 23.1 33.0 86.3 76.3 261.1
24 22:00 14.9 54 6.88 5.7 11 13 1014.8 0 15.9 23.0 32.7 85.6 75.4 258.2
24 21:50 15.4 52 6.83 5.6 11 11 1013.1 0 15.8 22.7 32.3 84.4 74.3 254.1
24 21:40 16.1 49 6.72 5.6 11 13 1013.1 0 15.5 22.4 31.6 82.6 72.3 247.3
24 21:30 16.6 49 6.92 5.9 11 15 1014.6 0 15.9 22.6 32.2 84.2 74.3 254.4
24 21:20 17.2 47 6.88 5.8 11 13 1013.1 0 15.8 22.3 31.8 83.0 73.2 250.6
24 21:10 17.7 46 6.94 5.9 11 13 1013.1 0 15.9 22.3 31.8 83.1 73.4 251.5
24 21:00 18.1 44 6.8 5.7 15 19 1014.5 0 15.6 22.1 31.2 81.5 71.5 244.8
24 20:50 18.4 43 6.76 5.6 13 15 1013.1 0 15.5 21.9 30.9 80.7 70.7 242.0
24 20:40 19 42 6.84 5.8 15 17 1013.1 0 15.6 21.9 30.9 80.8 71.1 243.4
24 20:30 19.4 41 6.84 5.8 17 24 1014.4 0 15.6 21.8 30.8 80.5 70.8 242.5
24 20:20 19.8 40 6.83 6.1 20 22 1013.1 0 15.6 21.7 30.6 79.9 70.3 240.7
24 20:10 20.2 39 6.82 5.8 19 22 1013.1 0 15.5 21.5 30.4 79.5 69.8 239.1
24 20:00 20.8 39 7.06 6.4 19 26 1014 0 16.0 21.8 31.0 81.2 72.1 247.1
24 19:50 21.2 37 6.86 5.9 17 20 1013.1 0 15.6 21.4 30.2 78.9 69.4 237.8
24 19:40 21.5 37 6.98 6.2 15 19 1013.1 0 15.8 21.5 30.5 79.7 70.5 241.6
24 19:30 21.7 36 6.87 6 17 24 1013.8 0 15.6 21.3 30.1 78.5 69.1 236.9
24 19:20 22.1 34 6.64 5.5 20 24 1013.1 0 15.1 20.9 29.1 76.0 66.2 226.7
24 19:10 22.5 34 6.79 5.8 20 24 1013.1 0 15.4 21.0 29.5 77.0 67.5 231.3
24 19:00 22.8 34 6.91 6.1 19 26 1013.4 0 15.6 21.1 29.8 77.8 68.6 235.2
24 18:50 23.1 34 7.03 6.4 22 28 1013.1 0 15.9 21.2 30.1 78.6 69.7 238.9
24 18:40 24.4 33 7.34 7.1 22 30 1013.1 0 16.5 21.3 30.6 80.1 71.9 247.0
24 18:30 24.6 33 7.43 7.3 24 32 1013.1 0 16.6 21.4 30.8 80.7 72.7 249.9
24 18:20 24.8 33 7.51 7.4 24 28 1013.1 0 16.8 21.4 31.0 81.2 73.4 252.3
24 18:10 25.2 33 7.68 7.8 24 30 1013.1 0 17.1 21.6 31.4 82.3 74.9 257.6
24 18:00 25.8 33 7.94 8.3 22 32 1012.9 0 17.7 21.8 32.1 84.0 77.2 265.7
24 17:50 25.9 32 7.75 7.9 22 32 1013.1 0 17.3 21.5 31.4 82.2 75.1 258.1
24 17:40 26.1 29 7.1 7.1 24 26 1013.1 0 15.9 20.6 29.2 76.4 67.9 233.0
24 17:30 26.3 29 7.18 6.9 26 39 1012.7 0 16.1 20.6 29.4 76.9 68.6 235.3
24 17:20 27 28 7.21 6.9 26 33 1013.1 0 16.1 20.5 29.3 76.5 68.3 234.6
24 17:10 27 28 7.21 6.9 17 20 1013.1 0 16.1 20.5 29.3 76.5 68.3 234.6
24 17:00 27 28 7.21 6.9 24 35 1012.7 0 16.1 20.5 29.3 76.5 68.3 234.5
24 16:50 27.3 28 7.33 7.2 22 32 1013.1 0 16.3 20.6 29.5 77.2 69.3 238.2
24 16:40 27.8 28 7.53 7.6 22 30 1013.1 0 16.7 20.8 30.0 78.5 71.0 244.1
24 16:30 27.7 28 7.49 7.5 20 32 1012.8 0 16.6 20.7 29.9 78.2 70.7 242.9
24 16:20 27 28 7.21 6.9 15 20 1013.1 0 16.1 20.5 29.3 76.5 68.3 234.6
24 16:10 27.4 27 7.1 7.2 20 24 1013.1 0 15.9 20.3 28.8 75.2 66.8 229.4
24 16:00 27.1 28 7.25 7 24 35 1012.9 0 16.2 20.6 29.3 76.7 68.6 235.7
24 15:50 27.7 28 7.49 7.5 13 22 1013.1 0 16.6 20.8 29.9 78.2 70.7 242.9
24 15:40 27.1 29 7.51 7.5 17 43 1013.1 0 16.7 20.9 30.2 79.0 71.4 245.4
24 15:30 27.1 30 7.76 8 20 33 1013.2 0 17.2 21.2 31.0 81.1 74.1 254.8
24 15:20 27.4 27 7.1 7.2 9 9 1013.1 0 15.9 20.3 28.8 75.2 66.8 229.4
24 15:10 26.8 28 7.13 7.2 22 26 1013.1 0 15.9 20.5 29.1 76.0 67.6 232.2
24 15:00 27.4 29 7.63 7.8 17 28 1013.4 0 16.9 21.0 30.5 79.8 72.4 249.1
24 14:50 26.4 30 7.47 7.4 9 15 1013.1 0 16.7 21.0 30.3 79.3 71.6 246.0
24 14:40 26.8 28 7.13 7.2 24 28 1013.1 0 15.9 20.5 29.1 76.0 67.6 232.2
24 14:30 26.6 29 7.3 7.1 13 22 1013.9 0 16.3 20.8 29.7 77.7 69.7 239.2
24 14:20 26.6 30 7.55 7.6 20 24 1013.1 0 16.8 21.1 30.5 79.8 72.3 248.4
24 14:10 26.8 29 7.38 7.7 15 19 1013.1 0 16.5 20.8 29.9 78.1 70.3 241.5
24 14:00 25.7 32 7.66 7.8 13 26 1014.3 0 17.1 21.5 31.2 81.7 74.3 255.6
24 13:50 25.5 31 7.34 7.1 20 28 1013.1 0 16.4 21.0 30.2 79.0 71.0 243.7
24 13:40 25.6 31 7.38 7.2 7 15 1013.1 0 16.5 21.1 30.3 79.3 71.3 245.0
24 13:30 25 32 7.37 7.2 15 24 1014.8 0 16.5 21.3 30.6 79.9 71.8 246.7
24 13:20 25.1 33 7.64 7.7 17 19 1013.1 0 17.1 21.5 31.4 82.1 74.6 256.4
24 13:10 25.1 32 7.41 7.2 19 20 1013.1 0 16.6 21.2 30.6 80.0 72.1 247.6
24 13:00 24.1 34 7.44 7.3 13 28 1015.3 0 16.7 21.6 31.1 81.4 73.4 252.2
24 12:50 24.1 33 7.22 7.2 13 17 1013.1 0 16.2 21.2 30.3 79.3 70.9 243.3
24 12:40 24.4 35 7.79 7.9 17 22 1013.1 0 17.4 21.9 32.1 84.1 76.9 264.4
24 12:30 24 35 7.61 7.6 19 30 1015.6 0 17.0 21.8 31.8 83.1 75.4 259.2
24 12:20 23.5 36 7.61 7.9 17 19 1013.1 0 17.1 21.9 31.9 83.4 75.7 260.3
24 12:10 23.4 37 7.78 7.9 19 22 1013.1 0 17.4 22.1 32.5 85.0 77.7 267.3
24 12:00 23.7 38 8.13 8.6 13 26 1016 0 18.1 22.6 33.7 88.2 81.6 280.8
24 11:50 22.3 40 7.9 8 7 7 1013.1 0 17.7 22.6 33.3 87.3 80.2 275.7
24 11:40 22.1 39 7.61 7.8 15 19 1013.1 0 17.1 22.2 32.4 84.8 77.1 264.8
24 11:30 22.2 40 7.85 8 15 26 1016.5 0 17.6 22.6 33.3 87.3 79.9 274.8
24 11:20 22.4 41 8.14 8.5 17 19 1013.1 0 18.2 22.9 34.1 89.4 82.8 285.1
24 11:10 21.5 42 7.92 8 13 17 1013.1 0 17.8 22.8 33.7 88.4 81.2 279.3
24 11:00 20.6 44 7.87 7.9 11 22 1016.8 0 17.7 23.1 34.1 89.2 81.8 281.2
24 10:50 20.6 45 8.05 8.2 9 11 1013.1 0 18.1 23.2 34.6 90.6 83.7 287.7
24 10:40 20.5 44 7.83 8.1 13 17 1013.1 0 17.7 22.9 33.8 88.6 81.2 279.0
24 10:30 19.9 47 8.07 8.3 9 13 1016.7 0 18.2 23.5 35.1 91.9 84.9 291.9
24 10:20 19.8 49 8.37 9 11 13 1013.1 0 18.8 23.9 36.1 94.6 88.4 304.1
24 10:10 18.7 50 8 8.3 4 6 1013.1 0 18.1 23.6 35.2 92.2 85.1 292.5
24 10:00 18.9 52 8.42 8.8 9 13 1016.7 0 19.0 24.3 36.8 96.5 90.2 310.5
24 09:50 18.3 52 8.13 8.5 7 11 1013.1 0 18.4 23.9 35.9 94.0 87.1 299.5
24 09:40 17.9 55 8.4 8.7 11 13 1013.1 0 19.0 24.4 37.0 97.2 90.9 312.7
24 09:30 17.2 58 8.49 8.9 9 19 1017 0 19.2 24.9 37.9 99.3 93.1 320.4
24 09:20 17 59 8.54 8.9 11 15 1013.1 0 19.3 24.9 38.0 99.7 93.7 322.4
24 09:10 16.8 61 8.72 9.2 15 17 1013.1 0 19.7 25.2 38.8 101.8 96.2 331.2
24 09:00 16.1 63 8.64 9.1 13 17 1017.1 0 19.6 25.4 39.0 102.3 96.4 331.6

Last Refresh: 25-Nov-2020 01:41:24

Most of the information presented on this site is sourced from the Bureau of Meteorology.  Copyright in all material sourced from the Bureau of Meteorology resides with the Commonwealth of Australia.